VCP3DO SCBA-SCCI
Flight info
| Callsign | VCP3DO |
|---|---|
| Flight time | N/A |
| Altitude | 25000 |
| Route | ROGEL3A ROGEL UL670 EGOSA EGOSA2E |
| Aircraft | DH8D/M-SDE2E3FGRY/H |
Departure
| Time | N/A |
|---|---|
| Airport | Balmaceda Airport (SCBA) |
Arrival
| Time | 2026-04-28 18:32 |
|---|---|
| Airport | President Carlos Ibáñez International Airport (SCCI) |
| Time | Latitude | Longitude | Altitude | Speed | Heading |
|---|---|---|---|---|---|
| 2026-04-28 18:17 | -52.24843 | -70.97578 | 16296 ft | 357 kts | 180° |
| 2026-04-28 18:17 | -52.27320 | -70.97385 | 15901 ft | 355 kts | 179° |
| 2026-04-28 18:17 | -52.29743 | -70.97195 | 15604 ft | 350 kts | 178° |
| 2026-04-28 18:17 | -52.32178 | -70.97000 | 15235 ft | 346 kts | 179° |
| 2026-04-28 18:18 | -52.34604 | -70.96813 | 14853 ft | 344 kts | 179° |
| 2026-04-28 18:18 | -52.36950 | -70.96636 | 14565 ft | 341 kts | 179° |
| 2026-04-28 18:18 | -52.39320 | -70.96441 | 14216 ft | 339 kts | 178° |
| 2026-04-28 18:18 | -52.40905 | -70.96311 | 13991 ft | 337 kts | 178° |
| 2026-04-28 18:19 | -52.43952 | -70.96069 | 13572 ft | 324 kts | 179° |
| 2026-04-28 18:19 | -52.46175 | -70.95888 | 13196 ft | 315 kts | 179° |
| 2026-04-28 18:19 | -52.48335 | -70.95710 | 12941 ft | 304 kts | 179° |
| 2026-04-28 18:19 | -52.50418 | -70.95547 | 12638 ft | 297 kts | 179° |
| 2026-04-28 18:20 | -52.52469 | -70.95383 | 12342 ft | 297 kts | 180° |
| 2026-04-28 18:20 | -52.54544 | -70.95216 | 12052 ft | 297 kts | 179° |
| 2026-04-28 18:20 | -52.56590 | -70.95053 | 11761 ft | 296 kts | 180° |
| 2026-04-28 18:20 | -52.58649 | -70.94893 | 11488 ft | 296 kts | 180° |
| 2026-04-28 18:21 | -52.60738 | -70.94725 | 11175 ft | 296 kts | 179° |
| 2026-04-28 18:21 | -52.62785 | -70.94559 | 10869 ft | 296 kts | 180° |
| 2026-04-28 18:21 | -52.64834 | -70.94396 | 10598 ft | 294 kts | 179° |
| 2026-04-28 18:21 | -52.66872 | -70.94231 | 10302 ft | 293 kts | 180° |
| 2026-04-28 18:22 | -52.68898 | -70.94071 | 9987 ft | 291 kts | 179° |
| 2026-04-28 18:22 | -52.70932 | -70.93906 | 9716 ft | 289 kts | 179° |
| 2026-04-28 18:22 | -52.72905 | -70.93752 | 9452 ft | 287 kts | 179° |
| 2026-04-28 18:22 | -52.74903 | -70.93586 | 9166 ft | 285 kts | 179° |
| 2026-04-28 18:23 | -52.76884 | -70.93427 | 8881 ft | 285 kts | 179° |
| 2026-04-28 18:23 | -52.78853 | -70.93267 | 8601 ft | 285 kts | 178° |
| 2026-04-28 18:23 | -52.80835 | -70.93107 | 8311 ft | 282 kts | 178° |
| 2026-04-28 18:23 | -52.82773 | -70.92683 | 7831 ft | 282 kts | 160° |
| 2026-04-28 18:24 | -52.84240 | -70.90874 | 7594 ft | 258 kts | 122° |
| 2026-04-28 18:24 | -52.84771 | -70.89157 | 7479 ft | 250 kts | 109° |
| 2026-04-28 18:24 | -52.85564 | -70.85541 | 7155 ft | 249 kts | 106° |
| 2026-04-28 18:24 | -52.86120 | -70.82838 | 6913 ft | 250 kts | 105° |
| 2026-04-28 18:25 | -52.86664 | -70.80125 | 6663 ft | 250 kts | 105° |
| 2026-04-28 18:25 | -52.87201 | -70.77400 | 6418 ft | 250 kts | 105° |
| 2026-04-28 18:25 | -52.87737 | -70.74645 | 6173 ft | 250 kts | 105° |
| 2026-04-28 18:26 | -52.88791 | -70.69158 | 5665 ft | 247 kts | 105° |
| 2026-04-28 18:26 | -52.89285 | -70.66551 | 5427 ft | 233 kts | 104° |
| 2026-04-28 18:26 | -52.89753 | -70.64070 | 5203 ft | 218 kts | 104° |
| 2026-04-28 18:26 | -52.90190 | -70.61755 | 4987 ft | 202 kts | 104° |
| 2026-04-28 18:27 | -52.90606 | -70.59557 | 4807 ft | 199 kts | 104° |
| 2026-04-28 18:27 | -52.91107 | -70.57431 | 4541 ft | 200 kts | 121° |
| 2026-04-28 18:27 | -52.92223 | -70.56213 | 4335 ft | 197 kts | 166° |
| 2026-04-28 18:27 | -52.93575 | -70.56039 | 4156 ft | 196 kts | 175° |
| 2026-04-28 18:28 | -52.94952 | -70.55984 | 3967 ft | 200 kts | 176° |
| 2026-04-28 18:28 | -52.96363 | -70.55932 | 3768 ft | 203 kts | 176° |
| 2026-04-28 18:28 | -52.97736 | -70.55883 | 3536 ft | 192 kts | 177° |
| 2026-04-28 18:28 | -52.98985 | -70.56448 | 3124 ft | 189 kts | 219° |
| 2026-04-28 18:29 | -52.99539 | -70.58315 | 2954 ft | 181 kts | 268° |
| 2026-04-28 18:29 | -52.99596 | -70.60407 | 2896 ft | 181 kts | 265° |
| 2026-04-28 18:29 | -52.99710 | -70.62494 | 2720 ft | 186 kts | 266° |
| 2026-04-28 18:29 | -52.99771 | -70.64709 | 2464 ft | 195 kts | 268° |
| 2026-04-28 18:30 | -52.99811 | -70.66997 | 2194 ft | 200 kts | 268° |
| 2026-04-28 18:30 | -52.99838 | -70.68475 | 2015 ft | 188 kts | 267° |
| 2026-04-28 18:30 | -52.99885 | -70.71258 | 1618 ft | 177 kts | 266° |
| 2026-04-28 18:30 | -52.99910 | -70.73277 | 1412 ft | 174 kts | 266° |
| 2026-04-28 18:31 | -52.99940 | -70.75282 | 1146 ft | 170 kts | 266° |
| 2026-04-28 18:31 | -52.99970 | -70.77169 | 906 ft | 161 kts | 266° |
| 2026-04-28 18:31 | -52.99995 | -70.78967 | 674 ft | 152 kts | 266° |
| 2026-04-28 18:31 | -53.00001 | -70.80688 | 477 ft | 145 kts | 267° |
| 2026-04-28 18:32 | -53.00026 | -70.82317 | 284 ft | 139 kts | 264° |
| 2026-04-28 18:32 | -53.00069 | -70.83881 | 134 ft | 128 kts | 269° |
| 2026-04-28 18:32 | -53.00084 | -70.85018 | 136 ft | 65 kts | 267° |
| 2026-04-28 18:32 | -53.00092 | -70.85622 | 141 ft | 45 kts | 269° |
| 2026-04-28 18:33 | -53.00097 | -70.86084 | 145 ft | 32 kts | 269° |
| 2026-04-28 18:33 | -53.00108 | -70.86280 | 147 ft | 11 kts | 248° |
| 2026-04-28 18:33 | -53.00177 | -70.86257 | 147 ft | 16 kts | 140° |
| 2026-04-28 18:33 | -53.00264 | -70.86119 | 146 ft | 16 kts | 113° |
| 2026-04-28 18:34 | -53.00268 | -70.85898 | 143 ft | 21 kts | 90° |
| 2026-04-28 18:34 | -53.00263 | -70.85644 | 140 ft | 20 kts | 89° |
| 2026-04-28 18:34 | -53.00261 | -70.85420 | 137 ft | 18 kts | 88° |
| 2026-04-28 18:34 | -53.00259 | -70.85229 | 135 ft | 16 kts | 89° |
| 2026-04-28 18:35 | -53.00257 | -70.85017 | 135 ft | 19 kts | 89° |
| 2026-04-28 18:35 | -53.00253 | -70.84821 | 136 ft | 14 kts | 90° |
| 2026-04-28 18:35 | -53.00310 | -70.84701 | 135 ft | 16 kts | 148° |
| 2026-04-28 18:35 | -53.00340 | -70.84668 | 135 ft | 15 kts | 148° |
| 2026-04-28 18:36 | -53.00411 | -70.84630 | 135 ft | 7 kts | 216° |
| 2026-04-28 18:36 | -53.00445 | -70.84688 | 135 ft | 6 kts | 224° |
| 2026-04-28 18:36 | -53.00457 | -70.84707 | 135 ft | 0 kts | 225° |